sensor_id;sensor_type;location;lat;lon;timestamp;P1;durP1;ratioP1;P2;durP2;ratioP2
4001;SDS011;2015;48.670;9.060;2023-02-18T00:01:33;2.00;;;1.90;;
4001;SDS011;2015;48.670;9.060;2023-02-18T00:04:05;2.53;;;2.00;;
4001;SDS011;2015;48.670;9.060;2023-02-18T00:06:37;2.00;;;1.80;;
4001;SDS011;2015;48.670;9.060;2023-02-18T00:09:09;1.60;;;1.50;;
4001;SDS011;2015;48.670;9.060;2023-02-18T00:11:41;2.07;;;1.97;;
4001;SDS011;2015;48.670;9.060;2023-02-18T00:14:14;2.13;;;2.03;;
4001;SDS011;2015;48.670;9.060;2023-02-18T00:16:46;1.60;;;1.50;;
4001;SDS011;2015;48.670;9.060;2023-02-18T00:19:18;1.87;;;1.77;;
4001;SDS011;2015;48.670;9.060;2023-02-18T00:21:51;2.20;;;2.10;;
4001;SDS011;2015;48.670;9.060;2023-02-18T00:24:22;1.80;;;1.70;;
4001;SDS011;2015;48.670;9.060;2023-02-18T00:26:54;1.80;;;1.70;;
4001;SDS011;2015;48.670;9.060;2023-02-18T00:29:26;2.00;;;1.90;;
4001;SDS011;2015;48.670;9.060;2023-02-18T00:31:58;2.30;;;1.87;;
4001;SDS011;2015;48.670;9.060;2023-02-18T00:34:30;1.83;;;1.73;;
4001;SDS011;2015;48.670;9.060;2023-02-18T00:37:03;2.03;;;1.93;;
4001;SDS011;2015;48.670;9.060;2023-02-18T00:39:35;2.07;;;1.97;;
4001;SDS011;2015;48.670;9.060;2023-02-18T00:42:07;3.63;;;1.73;;
4001;SDS011;2015;48.670;9.060;2023-02-18T00:44:39;2.13;;;2.03;;
4001;SDS011;2015;48.670;9.060;2023-02-18T00:47:10;2.03;;;1.93;;
4001;SDS011;2015;48.670;9.060;2023-02-18T00:49:42;1.57;;;1.47;;
4001;SDS011;2015;48.670;9.060;2023-02-18T00:52:14;2.30;;;2.20;;
4001;SDS011;2015;48.670;9.060;2023-02-18T00:54:46;2.20;;;2.00;;
4001;SDS011;2015;48.670;9.060;2023-02-18T00:57:18;2.10;;;2.00;;
4001;SDS011;2015;48.670;9.060;2023-02-18T00:59:49;1.67;;;1.57;;
4001;SDS011;2015;48.670;9.060;2023-02-18T01:02:21;2.20;;;2.00;;
4001;SDS011;2015;48.670;9.060;2023-02-18T01:04:53;2.60;;;2.40;;
4001;SDS011;2015;48.670;9.060;2023-02-18T01:07:25;2.03;;;1.93;;
4001;SDS011;2015;48.670;9.060;2023-02-18T01:09:56;2.40;;;2.30;;
4001;SDS011;2015;48.670;9.060;2023-02-18T01:12:28;2.07;;;1.97;;
4001;SDS011;2015;48.670;9.060;2023-02-18T01:15:00;2.63;;;2.07;;
4001;SDS011;2015;48.670;9.060;2023-02-18T01:17:32;2.70;;;2.50;;
4001;SDS011;2015;48.670;9.060;2023-02-18T01:20:04;3.50;;;3.20;;
4001;SDS011;2015;48.670;9.060;2023-02-18T01:22:37;2.60;;;2.50;;
4001;SDS011;2015;48.670;9.060;2023-02-18T01:25:09;2.60;;;2.40;;
4001;SDS011;2015;48.670;9.060;2023-02-18T01:27:42;2.57;;;2.47;;
4001;SDS011;2015;48.670;9.060;2023-02-18T01:30:14;2.17;;;2.07;;
4001;SDS011;2015;48.670;9.060;2023-02-18T01:32:47;2.65;;;2.45;;
4001;SDS011;2015;48.670;9.060;2023-02-18T01:35:19;2.80;;;2.60;;
4001;SDS011;2015;48.670;9.060;2023-02-18T01:37:51;3.47;;;3.17;;
4001;SDS011;2015;48.670;9.060;2023-02-18T01:40:24;3.13;;;2.93;;
4001;SDS011;2015;48.670;9.060;2023-02-18T01:42:57;2.90;;;2.70;;
4001;SDS011;2015;48.670;9.060;2023-02-18T01:48:27;2.77;;;2.57;;
4001;SDS011;2015;48.670;9.060;2023-02-18T01:51:03;2.83;;;2.63;;
4001;SDS011;2015;48.670;9.060;2023-02-18T01:56:24;3.00;;;2.80;;
4001;SDS011;2015;48.670;9.060;2023-02-18T01:59:03;3.27;;;3.17;;
4001;SDS011;2015;48.670;9.060;2023-02-18T02:01:40;3.00;;;2.80;;
4001;SDS011;2015;48.670;9.060;2023-02-18T02:04:14;3.03;;;2.83;;
4001;SDS011;2015;48.670;9.060;2023-02-18T02:06:46;3.30;;;3.10;;
4001;SDS011;2015;48.670;9.060;2023-02-18T02:09:18;3.43;;;3.23;;
4001;SDS011;2015;48.670;9.060;2023-02-18T02:14:54;3.10;;;2.90;;
4001;SDS011;2015;48.670;9.060;2023-02-18T02:38:04;3.70;;;3.40;;
4001;SDS011;2015;48.670;9.060;2023-02-18T02:40:44;2.87;;;2.67;;
4001;SDS011;2015;48.670;9.060;2023-02-18T02:46:25;2.67;;;2.50;;
4001;SDS011;2015;48.670;9.060;2023-02-18T02:51:57;2.80;;;2.60;;
4001;SDS011;2015;48.670;9.060;2023-02-18T02:55:09;2.93;;;2.73;;
4001;SDS011;2015;48.670;9.060;2023-02-18T02:57:46;2.37;;;2.27;;
4001;SDS011;2015;48.670;9.060;2023-02-18T03:00:49;2.67;;;2.47;;
4001;SDS011;2015;48.670;9.060;2023-02-18T03:09:40;2.43;;;2.33;;
4001;SDS011;2015;48.670;9.060;2023-02-18T03:15:07;3.27;;;3.00;;
4001;SDS011;2015;48.670;9.060;2023-02-18T03:18:02;3.37;;;3.10;;
4001;SDS011;2015;48.670;9.060;2023-02-18T03:24:01;2.70;;;2.50;;
4001;SDS011;2015;48.670;9.060;2023-02-18T03:26:40;2.73;;;2.63;;
4001;SDS011;2015;48.670;9.060;2023-02-18T03:29:18;3.40;;;3.20;;
4001;SDS011;2015;48.670;9.060;2023-02-18T03:31:53;2.60;;;2.50;;
4001;SDS011;2015;48.670;9.060;2023-02-18T03:34:29;2.60;;;2.50;;
4001;SDS011;2015;48.670;9.060;2023-02-18T03:37:04;2.97;;;2.77;;
4001;SDS011;2015;48.670;9.060;2023-02-18T03:39:38;3.20;;;3.00;;
4001;SDS011;2015;48.670;9.060;2023-02-18T03:42:17;2.10;;;2.00;;
4001;SDS011;2015;48.670;9.060;2023-02-18T03:44:49;3.20;;;3.00;;
4001;SDS011;2015;48.670;9.060;2023-02-18T03:47:21;2.57;;;2.47;;
4001;SDS011;2015;48.670;9.060;2023-02-18T03:49:54;2.63;;;2.43;;
4001;SDS011;2015;48.670;9.060;2023-02-18T03:52:26;3.00;;;2.77;;
4001;SDS011;2015;48.670;9.060;2023-02-18T03:54:58;3.07;;;2.87;;
4001;SDS011;2015;48.670;9.060;2023-02-18T03:57:30;3.80;;;2.30;;
4001;SDS011;2015;48.670;9.060;2023-02-18T04:00:02;3.20;;;2.90;;
4001;SDS011;2015;48.670;9.060;2023-02-18T04:02:36;2.40;;;2.30;;
4001;SDS011;2015;48.670;9.060;2023-02-18T04:05:08;3.20;;;3.00;;
4001;SDS011;2015;48.670;9.060;2023-02-18T04:07:40;2.50;;;2.40;;
4001;SDS011;2015;48.670;9.060;2023-02-18T04:10:12;3.00;;;2.80;;
4001;SDS011;2015;48.670;9.060;2023-02-18T04:12:44;2.70;;;2.50;;
4001;SDS011;2015;48.670;9.060;2023-02-18T04:15:16;3.23;;;2.70;;
4001;SDS011;2015;48.670;9.060;2023-02-18T04:17:48;2.80;;;2.60;;
4001;SDS011;2015;48.670;9.060;2023-02-18T04:20:20;3.00;;;2.80;;
4001;SDS011;2015;48.670;9.060;2023-02-18T04:22:52;2.37;;;2.27;;
4001;SDS011;2015;48.670;9.060;2023-02-18T04:25:24;3.20;;;3.00;;
4001;SDS011;2015;48.670;9.060;2023-02-18T04:27:56;2.70;;;2.37;;
4001;SDS011;2015;48.670;9.060;2023-02-18T04:30:28;2.70;;;2.60;;
4001;SDS011;2015;48.670;9.060;2023-02-18T04:33:00;2.80;;;2.70;;
4001;SDS011;2015;48.670;9.060;2023-02-18T04:35:31;2.10;;;2.00;;
4001;SDS011;2015;48.670;9.060;2023-02-18T04:38:03;3.37;;;3.07;;
4001;SDS011;2015;48.670;9.060;2023-02-18T04:40:35;2.77;;;2.60;;
4001;SDS011;2015;48.670;9.060;2023-02-18T04:43:07;2.53;;;2.37;;
4001;SDS011;2015;48.670;9.060;2023-02-18T04:45:39;2.70;;;2.60;;
4001;SDS011;2015;48.670;9.060;2023-02-18T04:48:11;2.97;;;2.67;;
4001;SDS011;2015;48.670;9.060;2023-02-18T04:50:43;2.87;;;2.70;;
4001;SDS011;2015;48.670;9.060;2023-02-18T04:53:15;2.80;;;2.60;;
4001;SDS011;2015;48.670;9.060;2023-02-18T04:55:50;2.93;;;2.73;;
4001;SDS011;2015;48.670;9.060;2023-02-18T04:58:23;2.60;;;2.43;;
4001;SDS011;2015;48.670;9.060;2023-02-18T05:00:59;2.80;;;2.70;;
4001;SDS011;2015;48.670;9.060;2023-02-18T05:03:32;2.47;;;2.27;;
4001;SDS011;2015;48.670;9.060;2023-02-18T05:06:04;3.80;;;3.00;;
4001;SDS011;2015;48.670;9.060;2023-02-18T05:08:36;2.70;;;2.50;;
4001;SDS011;2015;48.670;9.060;2023-02-18T05:11:08;2.53;;;2.43;;
4001;SDS011;2015;48.670;9.060;2023-02-18T05:13:40;2.90;;;2.70;;
4001;SDS011;2015;48.670;9.060;2023-02-18T05:16:12;3.10;;;2.90;;
4001;SDS011;2015;48.670;9.060;2023-02-18T05:18:44;3.50;;;3.20;;
4001;SDS011;2015;48.670;9.060;2023-02-18T05:21:16;3.70;;;3.50;;
4001;SDS011;2015;48.670;9.060;2023-02-18T05:23:47;3.13;;;2.83;;
4001;SDS011;2015;48.670;9.060;2023-02-18T05:26:19;3.27;;;3.07;;
4001;SDS011;2015;48.670;9.060;2023-02-18T05:28:51;2.80;;;2.60;;
4001;SDS011;2015;48.670;9.060;2023-02-18T05:31:23;3.10;;;2.90;;
4001;SDS011;2015;48.670;9.060;2023-02-18T05:33:55;3.20;;;2.77;;
4001;SDS011;2015;48.670;9.060;2023-02-18T05:36:27;3.00;;;2.80;;
4001;SDS011;2015;48.670;9.060;2023-02-18T05:38:58;2.60;;;2.50;;
4001;SDS011;2015;48.670;9.060;2023-02-18T05:41:30;2.90;;;2.70;;
4001;SDS011;2015;48.670;9.060;2023-02-18T05:44:02;3.40;;;3.10;;
4001;SDS011;2015;48.670;9.060;2023-02-18T05:46:52;3.00;;;2.80;;
4001;SDS011;2015;48.670;9.060;2023-02-18T05:49:24;2.13;;;2.03;;
4001;SDS011;2015;48.670;9.060;2023-02-18T05:51:57;2.70;;;2.50;;
4001;SDS011;2015;48.670;9.060;2023-02-18T05:54:29;2.53;;;2.43;;
4001;SDS011;2015;48.670;9.060;2023-02-18T05:57:01;3.20;;;3.00;;
4001;SDS011;2015;48.670;9.060;2023-02-18T05:59:33;2.40;;;2.20;;
4001;SDS011;2015;48.670;9.060;2023-02-18T06:02:05;2.63;;;2.43;;
4001;SDS011;2015;48.670;9.060;2023-02-18T06:04:37;2.70;;;2.50;;
4001;SDS011;2015;48.670;9.060;2023-02-18T06:07:10;2.80;;;2.60;;
4001;SDS011;2015;48.670;9.060;2023-02-18T06:09:42;2.67;;;2.47;;
4001;SDS011;2015;48.670;9.060;2023-02-18T06:12:14;2.87;;;2.60;;
4001;SDS011;2015;48.670;9.060;2023-02-18T06:14:46;3.37;;;3.17;;
4001;SDS011;2015;48.670;9.060;2023-02-18T06:17:17;2.70;;;2.50;;
4001;SDS011;2015;48.670;9.060;2023-02-18T06:19:49;2.80;;;2.60;;
4001;SDS011;2015;48.670;9.060;2023-02-18T06:22:21;3.03;;;2.83;;
4001;SDS011;2015;48.670;9.060;2023-02-18T06:24:53;3.50;;;3.20;;
4001;SDS011;2015;48.670;9.060;2023-02-18T06:27:25;2.90;;;2.80;;
4001;SDS011;2015;48.670;9.060;2023-02-18T06:29:56;5.10;;;3.00;;
4001;SDS011;2015;48.670;9.060;2023-02-18T06:32:28;2.90;;;2.80;;
4001;SDS011;2015;48.670;9.060;2023-02-18T06:35:00;3.30;;;3.00;;
4001;SDS011;2015;48.670;9.060;2023-02-18T06:37:32;3.33;;;3.13;;
4001;SDS011;2015;48.670;9.060;2023-02-18T06:40:04;3.00;;;2.80;;
4001;SDS011;2015;48.670;9.060;2023-02-18T06:42:37;4.40;;;3.17;;
4001;SDS011;2015;48.670;9.060;2023-02-18T06:45:09;2.70;;;2.60;;
4001;SDS011;2015;48.670;9.060;2023-02-18T06:47:40;3.23;;;3.03;;
4001;SDS011;2015;48.670;9.060;2023-02-18T06:50:12;2.63;;;2.53;;
4001;SDS011;2015;48.670;9.060;2023-02-18T06:52:44;3.67;;;3.47;;
4001;SDS011;2015;48.670;9.060;2023-02-18T06:55:16;2.87;;;2.70;;
4001;SDS011;2015;48.670;9.060;2023-02-18T06:57:48;2.83;;;2.63;;
4001;SDS011;2015;48.670;9.060;2023-02-18T07:00:20;3.10;;;2.90;;
4001;SDS011;2015;48.670;9.060;2023-02-18T07:02:52;2.87;;;2.67;;
4001;SDS011;2015;48.670;9.060;2023-02-18T07:05:24;3.20;;;2.93;;
4001;SDS011;2015;48.670;9.060;2023-02-18T07:07:56;2.97;;;2.77;;
4001;SDS011;2015;48.670;9.060;2023-02-18T07:10:28;4.10;;;3.80;;
4001;SDS011;2015;48.670;9.060;2023-02-18T07:13:00;3.23;;;3.03;;
4001;SDS011;2015;48.670;9.060;2023-02-18T07:15:31;2.90;;;2.70;;
4001;SDS011;2015;48.670;9.060;2023-02-18T07:18:03;3.00;;;2.80;;
4001;SDS011;2015;48.670;9.060;2023-02-18T07:20:35;4.30;;;4.00;;
4001;SDS011;2015;48.670;9.060;2023-02-18T07:23:07;3.50;;;3.30;;
4001;SDS011;2015;48.670;9.060;2023-02-18T07:25:39;3.73;;;3.43;;
4001;SDS011;2015;48.670;9.060;2023-02-18T07:28:11;3.70;;;3.40;;
4001;SDS011;2015;48.670;9.060;2023-02-18T07:30:42;3.63;;;3.40;;
4001;SDS011;2015;48.670;9.060;2023-02-18T07:33:14;3.40;;;3.20;;
4001;SDS011;2015;48.670;9.060;2023-02-18T07:35:46;3.53;;;3.33;;
4001;SDS011;2015;48.670;9.060;2023-02-18T07:38:30;5.63;;;3.30;;
4001;SDS011;2015;48.670;9.060;2023-02-18T07:41:02;4.23;;;4.03;;
4001;SDS011;2015;48.670;9.060;2023-02-18T07:43:34;3.10;;;2.90;;
4001;SDS011;2015;48.670;9.060;2023-02-18T07:46:05;3.63;;;3.43;;
4001;SDS011;2015;48.670;9.060;2023-02-18T07:48:38;3.97;;;3.67;;
4001;SDS011;2015;48.670;9.060;2023-02-18T07:51:10;3.97;;;3.67;;
4001;SDS011;2015;48.670;9.060;2023-02-18T07:53:43;4.00;;;3.80;;
4001;SDS011;2015;48.670;9.060;2023-02-18T07:56:15;3.57;;;3.30;;
4001;SDS011;2015;48.670;9.060;2023-02-18T07:58:48;3.60;;;3.40;;
4001;SDS011;2015;48.670;9.060;2023-02-18T08:01:20;4.10;;;3.70;;
4001;SDS011;2015;48.670;9.060;2023-02-18T08:03:52;4.20;;;3.93;;
4001;SDS011;2015;48.670;9.060;2023-02-18T08:06:25;3.83;;;3.50;;
4001;SDS011;2015;48.670;9.060;2023-02-18T08:09:00;3.80;;;3.60;;
4001;SDS011;2015;48.670;9.060;2023-02-18T08:11:32;3.23;;;2.73;;
4001;SDS011;2015;48.670;9.060;2023-02-18T08:14:04;3.40;;;3.20;;
4001;SDS011;2015;48.670;9.060;2023-02-18T08:16:36;3.57;;;3.27;;
4001;SDS011;2015;48.670;9.060;2023-02-18T08:19:07;3.60;;;3.30;;
4001;SDS011;2015;48.670;9.060;2023-02-18T08:21:40;2.97;;;2.77;;
4001;SDS011;2015;48.670;9.060;2023-02-18T08:24:12;2.97;;;2.77;;
4001;SDS011;2015;48.670;9.060;2023-02-18T08:26:43;3.13;;;2.83;;
4001;SDS011;2015;48.670;9.060;2023-02-18T08:29:30;2.57;;;2.37;;
4001;SDS011;2015;48.670;9.060;2023-02-18T08:32:02;2.50;;;2.23;;
4001;SDS011;2015;48.670;9.060;2023-02-18T08:34:34;2.50;;;2.33;;
4001;SDS011;2015;48.670;9.060;2023-02-18T08:37:06;2.73;;;2.53;;
4001;SDS011;2015;48.670;9.060;2023-02-18T08:39:37;12.07;;;3.37;;
4001;SDS011;2015;48.670;9.060;2023-02-18T08:42:10;2.67;;;2.47;;
4001;SDS011;2015;48.670;9.060;2023-02-18T08:44:42;2.70;;;2.50;;
4001;SDS011;2015;48.670;9.060;2023-02-18T08:47:14;2.67;;;2.47;;
4001;SDS011;2015;48.670;9.060;2023-02-18T08:50:05;2.70;;;2.50;;
4001;SDS011;2015;48.670;9.060;2023-02-18T08:52:37;2.73;;;2.53;;
4001;SDS011;2015;48.670;9.060;2023-02-18T08:55:09;2.40;;;2.30;;
4001;SDS011;2015;48.670;9.060;2023-02-18T08:57:41;1.93;;;1.80;;
4001;SDS011;2015;48.670;9.060;2023-02-18T09:00:14;3.17;;;1.93;;
4001;SDS011;2015;48.670;9.060;2023-02-18T09:02:46;2.30;;;1.92;;
4001;SDS011;2015;48.670;9.060;2023-02-18T09:05:18;3.33;;;2.23;;
4001;SDS011;2015;48.670;9.060;2023-02-18T09:07:50;2.23;;;2.13;;
4001;SDS011;2015;48.670;9.060;2023-02-18T09:10:22;2.20;;;2.10;;
4001;SDS011;2015;48.670;9.060;2023-02-18T09:12:54;2.60;;;2.40;;
4001;SDS011;2015;48.670;9.060;2023-02-18T09:15:25;2.83;;;2.10;;
4001;SDS011;2015;48.670;9.060;2023-02-18T09:17:57;2.23;;;1.97;;
4001;SDS011;2015;48.670;9.060;2023-02-18T09:20:29;2.57;;;1.97;;
4001;SDS011;2015;48.670;9.060;2023-02-18T09:23:01;2.40;;;2.20;;
4001;SDS011;2015;48.670;9.060;2023-02-18T09:25:33;3.23;;;2.30;;
4001;SDS011;2015;48.670;9.060;2023-02-18T09:28:05;1.80;;;1.70;;
4001;SDS011;2015;48.670;9.060;2023-02-18T09:30:38;2.63;;;2.43;;
4001;SDS011;2015;48.670;9.060;2023-02-18T09:33:10;2.17;;;2.07;;
4001;SDS011;2015;48.670;9.060;2023-02-18T09:35:42;1.90;;;1.63;;
4001;SDS011;2015;48.670;9.060;2023-02-18T09:38:16;2.40;;;2.30;;
4001;SDS011;2015;48.670;9.060;2023-02-18T09:40:49;2.70;;;1.90;;
4001;SDS011;2015;48.670;9.060;2023-02-18T09:46:06;2.23;;;2.03;;
4001;SDS011;2015;48.670;9.060;2023-02-18T09:48:50;2.30;;;2.10;;
4001;SDS011;2015;48.670;9.060;2023-02-18T09:51:23;2.30;;;2.20;;
4001;SDS011;2015;48.670;9.060;2023-02-18T09:53:55;2.20;;;2.10;;
4001;SDS011;2015;48.670;9.060;2023-02-18T09:56:27;2.10;;;2.00;;
4001;SDS011;2015;48.670;9.060;2023-02-18T09:59:06;1.80;;;1.70;;
4001;SDS011;2015;48.670;9.060;2023-02-18T10:01:48;2.67;;;2.00;;
4001;SDS011;2015;48.670;9.060;2023-02-18T10:04:36;3.20;;;2.07;;
4001;SDS011;2015;48.670;9.060;2023-02-18T10:07:17;2.00;;;1.77;;
4001;SDS011;2015;48.670;9.060;2023-02-18T10:09:54;1.80;;;1.70;;
4001;SDS011;2015;48.670;9.060;2023-02-18T10:12:28;2.43;;;2.33;;
4001;SDS011;2015;48.670;9.060;2023-02-18T10:15:06;2.17;;;2.07;;
4001;SDS011;2015;48.670;9.060;2023-02-18T10:17:47;2.00;;;1.90;;
4001;SDS011;2015;48.670;9.060;2023-02-18T10:20:22;2.23;;;2.03;;
4001;SDS011;2015;48.670;9.060;2023-02-18T10:22:57;2.50;;;2.20;;
4001;SDS011;2015;48.670;9.060;2023-02-18T10:25:32;1.70;;;1.53;;
4001;SDS011;2015;48.670;9.060;2023-02-18T10:28:12;2.80;;;1.60;;
4001;SDS011;2015;48.670;9.060;2023-02-18T10:30:50;6.77;;;2.03;;
4001;SDS011;2015;48.670;9.060;2023-02-18T10:44:58;2.00;;;1.90;;
4001;SDS011;2015;48.670;9.060;2023-02-18T10:48:20;2.57;;;1.80;;
4001;SDS011;2015;48.670;9.060;2023-02-18T10:50:36;2.93;;;1.83;;
4001;SDS011;2015;48.670;9.060;2023-02-18T10:56:05;1.90;;;1.80;;
4001;SDS011;2015;48.670;9.060;2023-02-18T10:58:42;2.13;;;2.03;;
4001;SDS011;2015;48.670;9.060;2023-02-18T11:01:20;1.80;;;1.70;;
4001;SDS011;2015;48.670;9.060;2023-02-18T11:04:02;2.10;;;2.00;;
4001;SDS011;2015;48.670;9.060;2023-02-18T11:12:28;2.40;;;2.20;;
4001;SDS011;2015;48.670;9.060;2023-02-18T11:17:46;1.53;;;1.43;;
4001;SDS011;2015;48.670;9.060;2023-02-18T11:23:18;1.87;;;1.77;;
4001;SDS011;2015;48.670;9.060;2023-02-18T11:31:22;1.93;;;1.83;;
4001;SDS011;2015;48.670;9.060;2023-02-18T11:33:56;1.37;;;1.27;;
4001;SDS011;2015;48.670;9.060;2023-02-18T11:36:31;1.67;;;1.57;;
4001;SDS011;2015;48.670;9.060;2023-02-18T11:39:12;1.60;;;1.50;;
4001;SDS011;2015;48.670;9.060;2023-02-18T11:42:12;1.70;;;1.60;;
4001;SDS011;2015;48.670;9.060;2023-02-18T11:44:56;1.50;;;1.40;;
4001;SDS011;2015;48.670;9.060;2023-02-18T11:47:31;2.83;;;1.60;;
4001;SDS011;2015;48.670;9.060;2023-02-18T11:52:41;3.50;;;1.50;;
4001;SDS011;2015;48.670;9.060;2023-02-18T11:57:53;1.50;;;1.40;;
4001;SDS011;2015;48.670;9.060;2023-02-18T12:03:14;2.33;;;1.50;;
4001;SDS011;2015;48.670;9.060;2023-02-18T12:05:57;2.10;;;1.90;;
4001;SDS011;2015;48.670;9.060;2023-02-18T12:08:33;2.23;;;2.00;;
4001;SDS011;2015;48.670;9.060;2023-02-18T12:11:25;1.47;;;1.37;;
4001;SDS011;2015;48.670;9.060;2023-02-18T12:14:07;2.23;;;1.40;;
4001;SDS011;2015;48.670;9.060;2023-02-18T12:19:52;1.73;;;1.63;;
4001;SDS011;2015;48.670;9.060;2023-02-18T12:22:45;3.73;;;1.40;;
4001;SDS011;2015;48.670;9.060;2023-02-18T12:31:21;3.77;;;1.93;;
4001;SDS011;2015;48.670;9.060;2023-02-18T13:04:53;2.50;;;2.33;;
4001;SDS011;2015;48.670;9.060;2023-02-18T13:07:47;2.40;;;2.20;;
4001;SDS011;2015;48.670;9.060;2023-02-18T13:13:03;2.63;;;2.47;;
4001;SDS011;2015;48.670;9.060;2023-02-18T13:15:45;4.10;;;2.87;;
4001;SDS011;2015;48.670;9.060;2023-02-18T13:18:27;2.73;;;2.30;;
4001;SDS011;2015;48.670;9.060;2023-02-18T13:21:14;4.47;;;3.10;;
4001;SDS011;2015;48.670;9.060;2023-02-18T13:26:21;2.70;;;2.43;;
4001;SDS011;2015;48.670;9.060;2023-02-18T13:37:38;2.63;;;2.43;;
4001;SDS011;2015;48.670;9.060;2023-02-18T13:40:33;2.37;;;2.17;;
4001;SDS011;2015;48.670;9.060;2023-02-18T13:43:16;2.80;;;2.60;;
4001;SDS011;2015;48.670;9.060;2023-02-18T13:48:46;2.70;;;2.50;;
4001;SDS011;2015;48.670;9.060;2023-02-18T13:51:41;2.83;;;2.63;;
4001;SDS011;2015;48.670;9.060;2023-02-18T13:54:31;2.67;;;2.47;;
4001;SDS011;2015;48.670;9.060;2023-02-18T13:57:14;2.83;;;2.53;;
4001;SDS011;2015;48.670;9.060;2023-02-18T14:07:43;2.33;;;2.23;;
4001;SDS011;2015;48.670;9.060;2023-02-18T14:20:46;2.87;;;2.67;;
4001;SDS011;2015;48.670;9.060;2023-02-18T14:50:59;3.23;;;3.00;;
4001;SDS011;2015;48.670;9.060;2023-02-18T14:53:31;2.07;;;1.97;;
4001;SDS011;2015;48.670;9.060;2023-02-18T14:56:12;2.50;;;2.30;;
4001;SDS011;2015;48.670;9.060;2023-02-18T14:58:46;2.77;;;2.57;;
4001;SDS011;2015;48.670;9.060;2023-02-18T15:01:35;2.58;;;2.30;;
4001;SDS011;2015;48.670;9.060;2023-02-18T15:04:10;2.97;;;2.77;;
4001;SDS011;2015;48.670;9.060;2023-02-18T15:06:45;3.30;;;3.10;;
4001;SDS011;2015;48.670;9.060;2023-02-18T15:09:18;2.83;;;2.63;;
4001;SDS011;2015;48.670;9.060;2023-02-18T15:11:54;2.77;;;2.60;;
4001;SDS011;2015;48.670;9.060;2023-02-18T15:14:38;2.50;;;2.30;;
4001;SDS011;2015;48.670;9.060;2023-02-18T15:17:13;2.57;;;2.37;;
4001;SDS011;2015;48.670;9.060;2023-02-18T15:19:53;2.73;;;2.53;;
4001;SDS011;2015;48.670;9.060;2023-02-18T15:22:29;3.05;;;2.78;;
4001;SDS011;2015;48.670;9.060;2023-02-18T15:25:04;3.63;;;3.33;;
4001;SDS011;2015;48.670;9.060;2023-02-18T15:27:38;2.80;;;2.60;;
4001;SDS011;2015;48.670;9.060;2023-02-18T15:30:23;2.93;;;2.73;;
4001;SDS011;2015;48.670;9.060;2023-02-18T15:32:56;3.97;;;3.60;;
4001;SDS011;2015;48.670;9.060;2023-02-18T15:35:30;2.80;;;2.60;;
4001;SDS011;2015;48.670;9.060;2023-02-18T15:38:03;2.30;;;2.20;;
4001;SDS011;2015;48.670;9.060;2023-02-18T15:40:35;2.70;;;2.53;;
4001;SDS011;2015;48.670;9.060;2023-02-18T15:43:08;2.90;;;2.70;;
4001;SDS011;2015;48.670;9.060;2023-02-18T15:45:45;3.07;;;2.87;;
4001;SDS011;2015;48.670;9.060;2023-02-18T15:51:05;3.90;;;2.57;;
4001;SDS011;2015;48.670;9.060;2023-02-18T15:53:49;2.50;;;2.40;;
4001;SDS011;2015;48.670;9.060;2023-02-18T15:56:38;2.60;;;2.50;;
4001;SDS011;2015;48.670;9.060;2023-02-18T15:59:16;2.97;;;2.77;;
4001;SDS011;2015;48.670;9.060;2023-02-18T16:01:52;2.60;;;2.40;;
4001;SDS011;2015;48.670;9.060;2023-02-18T16:04:27;3.33;;;3.10;;
4001;SDS011;2015;48.670;9.060;2023-02-18T16:07:04;3.30;;;3.10;;
4001;SDS011;2015;48.670;9.060;2023-02-18T16:10:21;3.10;;;2.73;;
4001;SDS011;2015;48.670;9.060;2023-02-18T16:12:54;3.23;;;3.03;;
4001;SDS011;2015;48.670;9.060;2023-02-18T16:15:31;3.30;;;3.10;;
4001;SDS011;2015;48.670;9.060;2023-02-18T16:23:56;3.33;;;2.87;;
4001;SDS011;2015;48.670;9.060;2023-02-18T16:26:31;3.00;;;2.63;;
4001;SDS011;2015;48.670;9.060;2023-02-18T16:29:55;3.00;;;2.80;;
4001;SDS011;2015;48.670;9.060;2023-02-18T16:32:10;2.80;;;2.60;;
4001;SDS011;2015;48.670;9.060;2023-02-18T16:34:42;4.37;;;2.93;;
4001;SDS011;2015;48.670;9.060;2023-02-18T16:37:14;2.77;;;2.57;;
4001;SDS011;2015;48.670;9.060;2023-02-18T16:40:50;3.13;;;2.93;;
4001;SDS011;2015;48.670;9.060;2023-02-18T16:43:04;3.33;;;2.90;;
4001;SDS011;2015;48.670;9.060;2023-02-18T16:45:55;2.87;;;2.77;;
4001;SDS011;2015;48.670;9.060;2023-02-18T16:48:38;3.10;;;2.90;;
4001;SDS011;2015;48.670;9.060;2023-02-18T16:51:13;2.97;;;2.77;;
4001;SDS011;2015;48.670;9.060;2023-02-18T16:53:47;3.33;;;3.03;;
4001;SDS011;2015;48.670;9.060;2023-02-18T16:56:21;3.50;;;3.30;;
4001;SDS011;2015;48.670;9.060;2023-02-18T16:58:54;4.03;;;2.73;;
4001;SDS011;2015;48.670;9.060;2023-02-18T17:01:28;2.63;;;2.43;;
4001;SDS011;2015;48.670;9.060;2023-02-18T17:04:02;2.87;;;2.67;;
4001;SDS011;2015;48.670;9.060;2023-02-18T17:06:38;3.50;;;3.23;;
4001;SDS011;2015;48.670;9.060;2023-02-18T17:09:17;4.03;;;3.73;;
4001;SDS011;2015;48.670;9.060;2023-02-18T17:11:52;3.23;;;2.67;;
4001;SDS011;2015;48.670;9.060;2023-02-18T17:14:25;3.83;;;3.53;;
4001;SDS011;2015;48.670;9.060;2023-02-18T17:16:57;3.37;;;3.17;;
4001;SDS011;2015;48.670;9.060;2023-02-18T17:19:29;4.00;;;3.70;;
4001;SDS011;2015;48.670;9.060;2023-02-18T17:22:01;3.60;;;3.27;;
4001;SDS011;2015;48.670;9.060;2023-02-18T17:24:32;4.30;;;3.90;;
4001;SDS011;2015;48.670;9.060;2023-02-18T17:27:04;3.70;;;3.50;;
4001;SDS011;2015;48.670;9.060;2023-02-18T17:29:36;2.80;;;2.70;;
4001;SDS011;2015;48.670;9.060;2023-02-18T17:32:08;3.83;;;3.63;;
4001;SDS011;2015;48.670;9.060;2023-02-18T17:34:43;3.60;;;3.30;;
4001;SDS011;2015;48.670;9.060;2023-02-18T17:37:15;3.03;;;2.83;;
4001;SDS011;2015;48.670;9.060;2023-02-18T17:39:46;3.17;;;2.97;;
4001;SDS011;2015;48.670;9.060;2023-02-18T17:42:19;4.20;;;3.90;;
4001;SDS011;2015;48.670;9.060;2023-02-18T17:44:51;3.60;;;3.37;;
4001;SDS011;2015;48.670;9.060;2023-02-18T17:47:23;4.00;;;3.70;;
4001;SDS011;2015;48.670;9.060;2023-02-18T17:49:54;4.40;;;4.10;;
4001;SDS011;2015;48.670;9.060;2023-02-18T17:52:28;4.00;;;3.70;;
4001;SDS011;2015;48.670;9.060;2023-02-18T17:55:04;3.53;;;3.23;;
4001;SDS011;2015;48.670;9.060;2023-02-18T17:57:46;5.33;;;3.40;;
4001;SDS011;2015;48.670;9.060;2023-02-18T18:00:22;4.03;;;3.77;;
4001;SDS011;2015;48.670;9.060;2023-02-18T18:02:57;4.03;;;3.40;;
4001;SDS011;2015;48.670;9.060;2023-02-18T18:05:31;3.80;;;3.60;;
4001;SDS011;2015;48.670;9.060;2023-02-18T18:08:06;4.03;;;3.77;;
4001;SDS011;2015;48.670;9.060;2023-02-18T18:10:39;3.83;;;3.53;;
4001;SDS011;2015;48.670;9.060;2023-02-18T18:13:22;4.00;;;3.67;;
4001;SDS011;2015;48.670;9.060;2023-02-18T18:15:56;5.77;;;3.60;;
4001;SDS011;2015;48.670;9.060;2023-02-18T18:18:28;3.60;;;3.40;;
4001;SDS011;2015;48.670;9.060;2023-02-18T18:21:00;4.87;;;4.00;;
4001;SDS011;2015;48.670;9.060;2023-02-18T18:23:32;3.33;;;3.13;;
4001;SDS011;2015;48.670;9.060;2023-02-18T18:26:04;4.73;;;3.57;;
4001;SDS011;2015;48.670;9.060;2023-02-18T18:28:36;3.70;;;3.40;;
4001;SDS011;2015;48.670;9.060;2023-02-18T18:31:09;4.33;;;4.10;;
4001;SDS011;2015;48.670;9.060;2023-02-18T18:33:46;3.57;;;3.37;;
4001;SDS011;2015;48.670;9.060;2023-02-18T18:36:20;3.83;;;3.53;;
4001;SDS011;2015;48.670;9.060;2023-02-18T18:38:54;4.17;;;3.87;;
4001;SDS011;2015;48.670;9.060;2023-02-18T18:41:26;4.03;;;3.80;;
4001;SDS011;2015;48.670;9.060;2023-02-18T18:43:58;4.10;;;3.70;;
4001;SDS011;2015;48.670;9.060;2023-02-18T18:46:29;3.90;;;3.60;;
4001;SDS011;2015;48.670;9.060;2023-02-18T18:49:01;4.70;;;4.30;;
4001;SDS011;2015;48.670;9.060;2023-02-18T18:51:33;3.80;;;3.50;;
4001;SDS011;2015;48.670;9.060;2023-02-18T18:54:05;4.00;;;3.80;;
4001;SDS011;2015;48.670;9.060;2023-02-18T18:56:37;3.83;;;3.63;;
4001;SDS011;2015;48.670;9.060;2023-02-18T18:59:09;4.07;;;3.77;;
4001;SDS011;2015;48.670;9.060;2023-02-18T19:01:41;6.00;;;4.30;;
4001;SDS011;2015;48.670;9.060;2023-02-18T19:04:12;4.47;;;4.17;;
4001;SDS011;2015;48.670;9.060;2023-02-18T19:06:44;4.20;;;3.90;;
4001;SDS011;2015;48.670;9.060;2023-02-18T19:09:16;4.27;;;3.97;;
4001;SDS011;2015;48.670;9.060;2023-02-18T19:11:48;4.20;;;4.00;;
4001;SDS011;2015;48.670;9.060;2023-02-18T19:14:19;3.83;;;3.63;;
4001;SDS011;2015;48.670;9.060;2023-02-18T19:16:52;4.40;;;4.07;;
4001;SDS011;2015;48.670;9.060;2023-02-18T19:19:26;5.03;;;3.97;;
4001;SDS011;2015;48.670;9.060;2023-02-18T19:21:58;4.40;;;3.80;;
4001;SDS011;2015;48.670;9.060;2023-02-18T19:24:29;4.17;;;3.83;;